Thursday, November 23, 2017, 9:33 AM GMT
Back to Local

CYSC, Sherbrooke, Que.

Location: , , Canada Lat: 45.4
Local Time: 9:33 AM GMT ( 9:33 GMT) Lon: -71.883
Time Zone: GMT Elev: 557 ft

Show me the last for .
Show Decoded

2017-11-23 09:00 METAR CYSC 230900Z AUTO 29012KT 9SM -SN OVC014 M07/M09 A3001 RMK SLP175 =
2017-11-23 08:00 METAR CYSC 230800Z AUTO 30008G16KT 9SM -SN OVC014 M06/M09 A3000 RMK SLP174 =
2017-11-23 07:00 METAR CYSC 230700Z AUTO 29011G18KT 9SM -SN OVC012 M06/M08 A3000 RMK SLP173 =
2017-11-23 06:22 METAR CYSC 230622Z AUTO 30012G17KT 9SM -SN OVC014 M05/M08 A2999 RMK SLP170 =
2017-11-23 06:00 METAR CYSC 230600Z AUTO 31011G23KT 9SM OVC014 M05/M08 A2999 RMK SLP169 =
2017-11-23 05:54 METAR CYSC 230554Z AUTO 31015G23KT 9SM OVC014 M05/M08 A2999 RMK SLP168 =
2017-11-23 05:44 METAR CYSC 230544Z AUTO 29013G18KT 9SM -SN OVC014 M05/M07 A2998 RMK SLP166 =
2017-11-23 05:00 METAR CYSC 230500Z AUTO 31013G18KT 9SM OVC012 M04/M07 A2998 RMK SLP163 =
2017-11-23 04:00 METAR CYSC 230400Z AUTO 31007G15KT 9SM OVC012 M03/M05 A2996 RMK SLP158 =
2017-11-23 03:17 METAR CYSC 230317Z AUTO 31010KT 9SM OVC010 M03/M04 A2995 RMK SLP155 =
2017-11-23 03:07 METAR CYSC 230307Z AUTO 32007G16KT 280V350 9SM -SN BKN010 OVC015 M03/M04 A2995
                 RMK SLP155 =
2017-11-23 03:00 METAR CYSC 230300Z AUTO 31010G16KT 9SM BKN010 OVC016 M03/M04 A2995 RMK SLP154 =
2017-11-23 02:00 METAR CYSC 230200Z AUTO 31009G15KT 9SM BKN014 OVC045 M02/M04 A2995 RMK SLP156 =
2017-11-23 01:15 METAR CYSC 230115Z AUTO 30012G17KT 9SM OVC010 M02/M03 A2995 RMK SLP155
2017-11-23 01:14 METAR CYSC 230114Z AUTO 30012G17KT 9SM OVC008 M02/M03 A2995 RMK SLP155 =
2017-11-23 01:00 METAR CYSC 230100Z AUTO 30011KT 8SM -SN BKN008 OVC013 M02/M03 A2995 RMK SLP153 =
2017-11-23 00:58 METAR CYSC 230058Z AUTO 30011KT 8SM -SN BKN008 OVC013 M02/M03 A2995 RMK SLP154 =
2017-11-23 00:57 METAR CYSC 230057Z AUTO 30011KT 8SM -SN BKN006 OVC013 M02/M03 A2995 RMK SLP155 =
2017-11-23 00:55 METAR CYSC 230055Z AUTO 29012KT 280V350 8SM -SN SCT006 OVC011 M01/M02 A2995 RMK
                 SLP154 =
2017-11-23 00:54 METAR CYSC 230054Z AUTO 30010G15KT 280V350 8SM -SN BKN008 OVC014 M01/M02 A2995
                 RMK SLP154 =
2017-11-23 00:48 METAR CYSC 230048Z AUTO 31010G16KT 8SM -SN BKN010 OVC017 M01/M03 A2994 RMK
                 SLP153 =
2017-11-23 00:12 METAR CYSC 230012Z AUTO 31012G17KT 9SM OVC010 M01/M02 A2994 RMK SLP150 =
2017-11-23 00:01 METAR CYSC 230001Z AUTO 30011G16KT 6SM -SN SCT006 OVC012 M00/M01 A2993 RMK
                 SLP147 =
2017-11-23 00:00 METAR CYSC 230000Z AUTO 31009G15KT 4SM -SN BKN006 OVC012 M00/M01 A2993 RMK
                 SLP146 =
2017-11-22 23:59 METAR CYSC 222359Z AUTO 31010G15KT 4SM -SN SCT006 OVC012 M00/M01 A2993 RMK
                 SLP147 =
2017-11-22 23:58 METAR CYSC 222358Z AUTO 31009G15KT 4SM -SN BKN009 OVC012 M00/M01 A2993 RMK
                 SLP147 =
2017-11-22 23:57 METAR CYSC 222357Z AUTO 31009G15KT 4SM -SN SCT006 OVC012 M00/M01 A2993 RMK
                 SLP147 =
2017-11-22 23:52 METAR CYSC 222352Z AUTO 32009G15KT 3SM -SN OVC008 M00/M01 A2993 RMK SLP147 =
2017-11-22 23:48 METAR CYSC 222348Z AUTO 31008KT 2 1/4SM -SN OVC008 M00/M01 A2993 RMK SLP147 =
2017-11-22 23:47 METAR CYSC 222347Z AUTO 31008KT 2SM -SN BKN006 OVC010 M00/M01 A2993 RMK SLP147 =
2017-11-22 23:42 METAR CYSC 222342Z AUTO 31009KT 1 3/4SM -RASN OVC006 M00/M01 A2993 RMK SLP147 =
2017-11-22 23:41 METAR CYSC 222341Z AUTO 31010KT 2SM -RASN OVC006 M00/M01 A2993 RMK SLP147 =
2017-11-22 23:32 METAR CYSC 222332Z AUTO 30009G16KT 2 1/2SM -RA BR OVC006 00/M01 A2992 RMK SLP144
                 =
2017-11-22 23:23 METAR CYSC 222323Z AUTO 30010G16KT 3SM -RA BR OVC004 00/M00 A2992 RMK SLP143 =
2017-11-22 23:14 METAR CYSC 222314Z AUTO 30011KT 250V320 2 1/4SM -RA BR OVC004 00/M00 A2991 RMK
                 SLP142 =
2017-11-22 23:09 METAR CYSC 222309Z AUTO 29007KT 3SM -RA BR OVC006 00/00 A2991 RMK SLP142 =
2017-11-22 23:05 METAR CYSC 222305Z AUTO 26005KT 3SM -RASN OVC006 00/00 A2991 RMK SLP141 =
2017-11-22 23:02 METAR CYSC 222302Z AUTO 27005KT 3SM -SN OVC006 00/M00 A2991 RMK SLP141 =
2017-11-22 23:00 METAR CYSC 222300Z AUTO 26005KT 3SM -RASN OVC006 00/M00 A2991 RMK SLP141 =
2017-11-22 22:51 METAR CYSC 222251Z AUTO 27005KT 3SM -RASN OVC006 00/00 A2991 RMK SLP141 =
2017-11-22 22:46 METAR CYSC 222246Z AUTO 27005KT 3SM -SN OVC006 00/00 A2991 RMK SLP142 =
2017-11-22 22:40 METAR CYSC 222240Z AUTO 27006KT 2 1/2SM -SN OVC006 00/00 A2991 RMK SLP142 =
2017-11-22 22:35 METAR CYSC 222235Z AUTO 27008KT 2 1/2SM -RASN OVC006 00/M00 A2991 RMK SLP141 =
2017-11-22 22:34 METAR CYSC 222234Z AUTO 27008KT 3SM -RASN OVC006 00/M00 A2991 RMK SLP141 =
2017-11-22 22:10 METAR CYSC 222210Z AUTO 27008KT 5SM -RA BR OVC006 00/M00 A2991 RMK SLP140 =
2017-11-22 22:01 METAR CYSC 222201Z AUTO 28005KT 6SM -RA BR OVC006 00/M00 A2991 RMK SLP141 =
2017-11-22 22:00 METAR CYSC 222200Z AUTO 28005KT 6SM -RASN OVC006 00/M00 A2991 RMK SLP141 =
2017-11-22 21:55 METAR CYSC 222155Z AUTO 28005KT 6SM -RASN OVC006 01/M00 A2991 RMK SLP141 =
2017-11-22 21:00 METAR CYSC 222100Z AUTO 27006KT 6SM -SN OVC006 00/M00 A2991 RMK SLP140 =
2017-11-22 20:19 METAR CYSC 222019Z AUTO 28007KT 6SM -SN OVC004 00/00 A2990 RMK SLP136 =
2017-11-22 20:01 METAR CYSC 222001Z AUTO 26005KT 3SM -SN OVC004 00/M00 A2990 RMK SLP138 =
2017-11-22 20:00 METAR CYSC 222000Z AUTO 26005KT 2 1/2SM -SN OVC004 00/00 A2990 RMK ICG PAST HR
                 SLP138 =
2017-11-22 19:42 METAR CYSC 221942Z AUTO 27006KT 2SM -SN BKN004 OVC009 00/M00 A2989 RMK VIS VRB 1
                 1/4-2 1/2 ICG SLP133 =
2017-11-22 19:37 METAR CYSC 221937Z AUTO 27007KT 2SM -SN BKN004 OVC009 00/00 A2989 RMK SLP134 =
2017-11-22 19:00 METAR CYSC 221900Z AUTO 27006KT 1 3/4SM -SN OVC004 00/M00 A2988 RMK VIS VRB 1-2
                 1/2 SLP131 =
2017-11-22 18:58 METAR CYSC 221858Z AUTO 28006KT 1 3/4SM -SN OVC004 00/M00 A2988 RMK VIS VRB 1-3
                 SLP132 =
2017-11-22 18:51 METAR CYSC 221851Z AUTO 28006KT 2 1/2SM -SN OVC004 00/00 A2988 RMK VIS VRB 1
                 3/4-3 SLP132 =
2017-11-22 18:29 METAR CYSC 221829Z AUTO 28007KT 3SM -SN OVC004 01/00 A2989 RMK SLP134 =
2017-11-22 18:26 METAR CYSC 221826Z AUTO 28007KT 4SM -SN -UP OVC004 01/00 A2989 RMK SLP135 =
2017-11-22 18:23 METAR CYSC 221823Z AUTO 28007KT 4SM -RASN -UP OVC004 01/00 A2989 RMK SLP135 =
2017-11-22 18:21 METAR CYSC 221821Z AUTO 28007KT 5SM -RA -UP BR BKN004 OVC008 01/01 A2989 RMK
                 SLP135 =
2017-11-22 18:20 METAR CYSC 221820Z AUTO 28007KT 7SM -RA -UP BKN004 OVC008 01/01 A2989 RMK SLP135
                 =
2017-11-22 18:16 METAR CYSC 221816Z AUTO 28007KT 8SM -RA BKN004 BKN008 OVC011 01/01 A2990 RMK
                 SLP137 =
2017-11-22 18:10 METAR CYSC 221810Z AUTO 27007KT 7SM -RA -UP BKN006 OVC011 01/01 A2990 RMK SLP137
                 =
2017-11-22 18:06 METAR CYSC 221806Z AUTO 27007KT 6SM -UP BR BKN006 OVC011 01/01 A2990 RMK SLP137
                 =
2017-11-22 18:00 METAR CYSC 221800Z AUTO 28008KT 9SM -RA -UP BKN006 OVC011 01/01 A2990 RMK PCPN
                 0.5MM PAST HR SLP138 =
2017-11-22 17:57 METAR CYSC 221757Z AUTO 28008KT 9SM -RA BKN006 OVC011 01/01 A2990 RMK SLP137 =
2017-11-22 17:54 METAR CYSC 221754Z AUTO 28009KT 9SM -RA BKN008 OVC013 02/01 A2990 RMK SLP138 =
2017-11-22 17:52 METAR CYSC 221752Z AUTO 27008KT 9SM -RA BKN006 OVC010 02/01 A2990 RMK SLP137 =
2017-11-22 17:49 METAR CYSC 221749Z AUTO 26008KT 9SM -RA SCT006 OVC010 02/01 A2990 RMK SLP137 =
2017-11-22 17:37 METAR CYSC 221737Z AUTO 28010KT 9SM -RA BKN008 OVC016 02/01 A2990 RMK SLP136 =
2017-11-22 17:29 METAR CYSC 221729Z AUTO 28008KT 7SM -RA BKN006 OVC012 02/02 A2989 RMK SLP133 =
2017-11-22 17:27 METAR CYSC 221727Z AUTO 27010KT 6SM -RA BR SCT006 OVC010 02/02 A2989 RMK SLP133
                 =
2017-11-22 17:11 METAR CYSC 221711Z AUTO 26005KT 5SM -RA BR OVC012 03/03 A2990 RMK SLP135 =
2017-11-22 17:00 METAR CYSC 221700Z AUTO 26004KT 8SM -RA OVC012 03/02 A2989 RMK SLP134 =
2017-11-22 16:48 METAR CYSC 221648Z AUTO 27004KT 9SM -RA OVC012 03/02 A2989 RMK SLP133 =
2017-11-22 16:47 METAR CYSC 221647Z AUTO 26004KT 9SM -RA BKN009 OVC014 03/02 A2989 RMK SLP133 =
2017-11-22 16:00 METAR CYSC 221600Z AUTO 23003KT 9SM -RA BKN018 BKN024 04/01 A2990 RMK SLP134 =
2017-11-22 15:47 METAR CYSC 221547Z AUTO 20003KT 9SM -RA SCT018 BKN024 BKN240 04/01 A2990 RMK
                 SLP135 =
2017-11-22 15:01 METAR CYSC 221501Z AUTO 19004KT 9SM -RA FEW028 BKN036 BKN250 04/M01 A2992 RMK
                 SLP142 =
2017-11-22 15:00 METAR CYSC 221500Z AUTO 20004KT 9SM FEW030 BKN036 BKN240 04/M01 A2992 RMK SLP142
                 =
2017-11-22 14:00 METAR CYSC 221400Z AUTO 00000KT 9SM OVC070 03/M01 A2988 RMK PRESRR SLP129 =
2017-11-22 13:00 METAR CYSC 221300Z AUTO 09002KT 9SM OVC060 02/M02 A2988 RMK SLP127 =
2017-11-22 12:00 METAR CYSC 221200Z AUTO 00000KT 9SM OVC070 01/M02 A2989 RMK SLP131 =
2017-11-22 11:00 METAR CYSC 221100Z AUTO VRB02KT 9SM OVC095 M00/M02 A2987 RMK SLP124 =
2017-11-22 10:00 METAR CYSC 221000Z AUTO 10002KT 9SM SCT095 SCT250 01/M02 A2989 RMK SLP130 =

Support USWX by starting your Amazon purchase here.